Terminal Aerodrome Forecast
Issued by NWS Brownsville, TX

Home | Current Version | Previous Version | Text Only | Print | Product List | Glossary On
Versions: 1 2 3 4 5 6 7 8 9 10 11 12 13 14 15 16 17
000
FTUS44 KBRO 231129
TAFHRL
TAF
KHRL 231129Z 2312/2412 16007KT P6SM SKC
      TEMPO 2312/2314 1/4SM FG VV001
     FM231500 17015G22KT P6SM SKC
     FM240200 15012KT P6SM SKC
     FM241000 18010KT P6SM SKC=

USA.gov is the U.S. government's official web portal to all federal, state and local government web resources and services.